sensor_id;sensor_type;location;lat;lon;timestamp;pressure;altitude;pressure_sealevel;temperature
76007;BMP280;64699;0.000;0.000;2023-02-28T00:02:16;102005.38;;;15.99
76007;BMP280;64699;0.000;0.000;2023-02-28T00:04:45;102008.31;;;15.95
76007;BMP280;64699;0.000;0.000;2023-02-28T00:07:11;102006.59;;;15.98
76007;BMP280;64699;0.000;0.000;2023-02-28T00:09:36;102016.06;;;15.97
76007;BMP280;64699;0.000;0.000;2023-02-28T00:12:02;102013.78;;;15.95
76007;BMP280;64699;0.000;0.000;2023-02-28T00:14:35;102019.75;;;15.94
76007;BMP280;64699;0.000;0.000;2023-02-28T00:17:01;102009.06;;;15.96
76007;BMP280;64699;0.000;0.000;2023-02-28T00:19:26;102025.53;;;15.96
76007;BMP280;64699;0.000;0.000;2023-02-28T00:21:52;102031.00;;;15.96
76007;BMP280;64699;0.000;0.000;2023-02-28T00:24:17;102023.53;;;15.96
76007;BMP280;64699;0.000;0.000;2023-02-28T00:26:43;102028.25;;;15.96
76007;BMP280;64699;0.000;0.000;2023-02-28T00:29:08;102028.25;;;15.96
76007;BMP280;64699;0.000;0.000;2023-02-28T00:31:34;102029.50;;;15.95
76007;BMP280;64699;0.000;0.000;2023-02-28T00:34:00;102021.91;;;15.90
76007;BMP280;64699;0.000;0.000;2023-02-28T00:36:25;102022.50;;;15.94
76007;BMP280;64699;0.000;0.000;2023-02-28T00:38:51;102022.50;;;15.94
76007;BMP280;64699;0.000;0.000;2023-02-28T00:41:17;102022.50;;;15.94
76007;BMP280;64699;0.000;0.000;2023-02-28T00:43:42;102018.53;;;15.95
76007;BMP280;64699;0.000;0.000;2023-02-28T00:46:08;102030.44;;;15.92
76007;BMP280;64699;0.000;0.000;2023-02-28T00:48:34;102022.69;;;15.90
76007;BMP280;64699;0.000;0.000;2023-02-28T00:50:59;102027.41;;;15.90
76007;BMP280;64699;0.000;0.000;2023-02-28T00:53:25;102025.44;;;15.90
76007;BMP280;64699;0.000;0.000;2023-02-28T00:55:51;102020.41;;;15.89
76007;BMP280;64699;0.000;0.000;2023-02-28T00:58:16;102019.94;;;15.90
76007;BMP280;64699;0.000;0.000;2023-02-28T01:00:42;102023.59;;;15.87
76007;BMP280;64699;0.000;0.000;2023-02-28T01:03:07;102027.41;;;15.90
76007;BMP280;64699;0.000;0.000;2023-02-28T01:05:33;102025.88;;;15.89
76007;BMP280;64699;0.000;0.000;2023-02-28T01:07:58;102022.84;;;15.87
76007;BMP280;64699;0.000;0.000;2023-02-28T01:10:24;102025.13;;;15.88
76007;BMP280;64699;0.000;0.000;2023-02-28T01:12:50;102023.59;;;15.87
76007;BMP280;64699;0.000;0.000;2023-02-28T01:15:15;102018.13;;;15.87
76007;BMP280;64699;0.000;0.000;2023-02-28T01:17:41;102015.38;;;15.87
76007;BMP280;64699;0.000;0.000;2023-02-28T01:20:07;102010.41;;;15.86
76007;BMP280;64699;0.000;0.000;2023-02-28T01:22:34;102016.06;;;15.82
76007;BMP280;64699;0.000;0.000;2023-02-28T01:24:59;102025.53;;;15.81
76007;BMP280;64699;0.000;0.000;2023-02-28T01:27:25;102012.81;;;15.84
76007;BMP280;64699;0.000;0.000;2023-02-28T01:29:51;102014.72;;;15.78
76007;BMP280;64699;0.000;0.000;2023-02-28T01:32:17;102023.41;;;15.76
76007;BMP280;64699;0.000;0.000;2023-02-28T01:34:43;102019.91;;;15.76
76007;BMP280;64699;0.000;0.000;2023-02-28T01:37:08;102019.19;;;15.75
76007;BMP280;64699;0.000;0.000;2023-02-28T01:39:34;102028.16;;;15.76
76007;BMP280;64699;0.000;0.000;2023-02-28T01:41:59;102025.41;;;15.76
76007;BMP280;64699;0.000;0.000;2023-02-28T01:47:09;102031.72;;;15.82
76007;BMP280;64699;0.000;0.000;2023-02-28T01:49:34;102029.28;;;15.84
76007;BMP280;64699;0.000;0.000;2023-02-28T01:52:00;102022.56;;;15.85
76007;BMP280;64699;0.000;0.000;2023-02-28T01:54:27;102027.75;;;15.83
76007;BMP280;64699;0.000;0.000;2023-02-28T01:56:56;102032.00;;;15.84
76007;BMP280;64699;0.000;0.000;2023-02-28T01:59:44;102027.59;;;15.86
76007;BMP280;64699;0.000;0.000;2023-02-28T02:02:12;102032.34;;;15.86
76007;BMP280;64699;0.000;0.000;2023-02-28T02:04:39;102031.38;;;15.89
76007;BMP280;64699;0.000;0.000;2023-02-28T02:07:05;102023.34;;;15.85
76007;BMP280;64699;0.000;0.000;2023-02-28T02:09:31;102026.84;;;15.86
76007;BMP280;64699;0.000;0.000;2023-02-28T02:11:56;102021.63;;;15.88
76007;BMP280;64699;0.000;0.000;2023-02-28T02:27:33;102029.50;;;15.95
76007;BMP280;64699;0.000;0.000;2023-02-28T02:29:52;102025.69;;;16.07
76007;BMP280;64699;0.000;0.000;2023-02-28T02:37:38;102034.94;;;16.24
76007;BMP280;64699;0.000;0.000;2023-02-28T02:40:09;102033.94;;;16.21
76007;BMP280;64699;0.000;0.000;2023-02-28T02:42:39;102037.59;;;16.18
76007;BMP280;64699;0.000;0.000;2023-02-28T02:45:07;102040.25;;;16.13
76007;BMP280;64699;0.000;0.000;2023-02-28T02:47:35;102037.25;;;16.11
76007;BMP280;64699;0.000;0.000;2023-02-28T02:50:03;102036.97;;;16.09
76007;BMP280;64699;0.000;0.000;2023-02-28T02:52:33;102038.16;;;16.08
76007;BMP280;64699;0.000;0.000;2023-02-28T02:55:00;102032.69;;;16.08
76007;BMP280;64699;0.000;0.000;2023-02-28T02:57:29;102032.69;;;16.08
76007;BMP280;64699;0.000;0.000;2023-02-28T02:59:56;102044.63;;;16.05
76007;BMP280;64699;0.000;0.000;2023-02-28T03:02:22;102042.16;;;16.07
76007;BMP280;64699;0.000;0.000;2023-02-28T03:04:51;102041.09;;;16.04
76007;BMP280;64699;0.000;0.000;2023-02-28T03:07:17;102044.63;;;16.05
76007;BMP280;64699;0.000;0.000;2023-02-28T03:09:50;102043.09;;;16.04
76007;BMP280;64699;0.000;0.000;2023-02-28T03:12:15;102052.56;;;16.03
76007;BMP280;64699;0.000;0.000;2023-02-28T03:25:29;102047.25;;;15.99
76007;BMP280;64699;0.000;0.000;2023-02-28T03:28:07;102045.25;;;16.00
76007;BMP280;64699;0.000;0.000;2023-02-28T03:30:36;102042.88;;;15.93
76007;BMP280;64699;0.000;0.000;2023-02-28T03:33:08;102043.84;;;15.90
76007;BMP280;64699;0.000;0.000;2023-02-28T03:35:39;102038.81;;;15.88
76007;BMP280;64699;0.000;0.000;2023-02-28T03:38:49;102047.63;;;15.92
76007;BMP280;64699;0.000;0.000;2023-02-28T03:41:10;102052.66;;;15.94
76007;BMP280;64699;0.000;0.000;2023-02-28T03:43:40;102049.31;;;15.90
76007;BMP280;64699;0.000;0.000;2023-02-28T03:46:07;102054.81;;;15.90
76007;BMP280;64699;0.000;0.000;2023-02-28T03:48:41;102054.53;;;15.88
76007;BMP280;64699;0.000;0.000;2023-02-28T03:51:07;102044.50;;;15.85
76007;BMP280;64699;0.000;0.000;2023-02-28T03:53:44;102056.69;;;15.84
76007;BMP280;64699;0.000;0.000;2023-02-28T03:58:42;102058.50;;;15.87
76007;BMP280;64699;0.000;0.000;2023-02-28T04:01:14;102050.56;;;15.89
76007;BMP280;64699;0.000;0.000;2023-02-28T04:03:42;102058.00;;;15.88
76007;BMP280;64699;0.000;0.000;2023-02-28T04:06:08;102054.81;;;15.90
76007;BMP280;64699;0.000;0.000;2023-02-28T04:08:38;102050.75;;;15.85
76007;BMP280;64699;0.000;0.000;2023-02-28T04:13:29;102053.00;;;15.87
76007;BMP280;64699;0.000;0.000;2023-02-28T04:15:55;102055.75;;;15.87
76007;BMP280;64699;0.000;0.000;2023-02-28T04:18:21;102054.25;;;15.86
76007;BMP280;64699;0.000;0.000;2023-02-28T04:20:46;102057.25;;;15.88
76007;BMP280;64699;0.000;0.000;2023-02-28T04:23:12;102056.38;;;15.82
76007;BMP280;64699;0.000;0.000;2023-02-28T04:25:37;102059.13;;;15.82
76007;BMP280;64699;0.000;0.000;2023-02-28T04:28:05;102060.50;;;15.86
76007;BMP280;64699;0.000;0.000;2023-02-28T04:30:31;102057.75;;;15.86
76007;BMP280;64699;0.000;0.000;2023-02-28T04:32:57;102051.19;;;15.84
76007;BMP280;64699;0.000;0.000;2023-02-28T04:35:23;102068.88;;;15.83
76007;BMP280;64699;0.000;0.000;2023-02-28T04:37:49;102063.13;;;15.81
76007;BMP280;64699;0.000;0.000;2023-02-28T04:40:14;102064.06;;;15.78
76007;BMP280;64699;0.000;0.000;2023-02-28T04:42:39;102061.16;;;15.81
76007;BMP280;64699;0.000;0.000;2023-02-28T04:45:05;102059.31;;;15.78
76007;BMP280;64699;0.000;0.000;2023-02-28T04:47:31;102061.59;;;15.80
76007;BMP280;64699;0.000;0.000;2023-02-28T04:49:57;102061.31;;;15.78
76007;BMP280;64699;0.000;0.000;2023-02-28T04:52:22;102062.34;;;15.80
76007;BMP280;64699;0.000;0.000;2023-02-28T04:54:48;102062.50;;;15.77
76007;BMP280;64699;0.000;0.000;2023-02-28T04:57:13;102064.69;;;15.73
76007;BMP280;64699;0.000;0.000;2023-02-28T04:59:39;102069.25;;;15.76
76007;BMP280;64699;0.000;0.000;2023-02-28T05:02:04;102062.50;;;15.77
76007;BMP280;64699;0.000;0.000;2023-02-28T05:04:35;102073.47;;;15.77
76007;BMP280;64699;0.000;0.000;2023-02-28T05:07:01;102071.41;;;15.72
76007;BMP280;64699;0.000;0.000;2023-02-28T05:09:28;102077.63;;;15.72
76007;BMP280;64699;0.000;0.000;2023-02-28T05:11:53;102083.88;;;15.73
76007;BMP280;64699;0.000;0.000;2023-02-28T05:14:19;102089.38;;;15.73
76007;BMP280;64699;0.000;0.000;2023-02-28T05:16:45;102080.28;;;15.67
76007;BMP280;64699;0.000;0.000;2023-02-28T05:19:10;102086.72;;;15.64
76007;BMP280;64699;0.000;0.000;2023-02-28T05:21:37;102093.72;;;15.65
76007;BMP280;64699;0.000;0.000;2023-02-28T05:24:07;102093.41;;;15.63
76007;BMP280;64699;0.000;0.000;2023-02-28T05:26:35;102099.19;;;15.65
76007;BMP280;64699;0.000;0.000;2023-02-28T05:29:01;102100.56;;;15.60
76007;BMP280;64699;0.000;0.000;2023-02-28T05:31:26;102096.16;;;15.63
76007;BMP280;64699;0.000;0.000;2023-02-28T05:33:51;102095.09;;;15.60
76007;BMP280;64699;0.000;0.000;2023-02-28T05:36:17;102103.31;;;15.60
76007;BMP280;64699;0.000;0.000;2023-02-28T05:38:45;102095.56;;;15.59
76007;BMP280;64699;0.000;0.000;2023-02-28T05:41:11;102101.06;;;15.59
76007;BMP280;64699;0.000;0.000;2023-02-28T05:43:36;102105.00;;;15.58
76007;BMP280;64699;0.000;0.000;2023-02-28T05:46:03;102115.84;;;15.52
76007;BMP280;64699;0.000;0.000;2023-02-28T05:48:29;102114.44;;;15.57
76007;BMP280;64699;0.000;0.000;2023-02-28T05:50:54;102119.00;;;15.60
76007;BMP280;64699;0.000;0.000;2023-02-28T05:53:20;102117.50;;;15.59
76007;BMP280;64699;0.000;0.000;2023-02-28T05:55:45;102118.72;;;15.58
76007;BMP280;64699;0.000;0.000;2023-02-28T05:58:11;102119.34;;;15.53
76007;BMP280;64699;0.000;0.000;2023-02-28T06:00:36;102120.84;;;15.54
76007;BMP280;64699;0.000;0.000;2023-02-28T06:03:02;102123.13;;;15.55
76007;BMP280;64699;0.000;0.000;2023-02-28T06:05:27;102120.69;;;15.57
76007;BMP280;64699;0.000;0.000;2023-02-28T06:07:53;102117.09;;;15.52
76007;BMP280;64699;0.000;0.000;2023-02-28T06:10:18;102131.53;;;15.52
76007;BMP280;64699;0.000;0.000;2023-02-28T06:12:47;102130.31;;;15.53
76007;BMP280;64699;0.000;0.000;2023-02-28T06:15:13;102134.56;;;15.54
76007;BMP280;64699;0.000;0.000;2023-02-28T06:17:40;102129.38;;;15.56
76007;BMP280;64699;0.000;0.000;2023-02-28T06:20:06;102130.78;;;15.52
76007;BMP280;64699;0.000;0.000;2023-02-28T06:22:33;102128.78;;;15.52
76007;BMP280;64699;0.000;0.000;2023-02-28T06:24:58;102125.75;;;15.50
76007;BMP280;64699;0.000;0.000;2023-02-28T06:27:24;102127.28;;;15.51
76007;BMP280;64699;0.000;0.000;2023-02-28T06:29:52;102130.31;;;15.53
76007;BMP280;64699;0.000;0.000;2023-02-28T06:32:18;102129.38;;;15.56
76007;BMP280;64699;0.000;0.000;2023-02-28T06:34:44;102129.66;;;15.58
76007;BMP280;64699;0.000;0.000;2023-02-28T06:37:09;102133.19;;;15.58
76007;BMP280;64699;0.000;0.000;2023-02-28T06:39:35;102122.31;;;15.64
76007;BMP280;64699;0.000;0.000;2023-02-28T06:42:00;102128.25;;;15.62
76007;BMP280;64699;0.000;0.000;2023-02-28T06:44:26;102123.56;;;15.63
76007;BMP280;64699;0.000;0.000;2023-02-28T06:46:51;102119.84;;;15.66
76007;BMP280;64699;0.000;0.000;2023-02-28T06:49:17;102126.09;;;15.66
76007;BMP280;64699;0.000;0.000;2023-02-28T06:51:43;102120.16;;;15.68
76007;BMP280;64699;0.000;0.000;2023-02-28T06:54:10;102116.38;;;15.65
76007;BMP280;64699;0.000;0.000;2023-02-28T06:56:36;102115.25;;;15.72
76007;BMP280;64699;0.000;0.000;2023-02-28T06:59:02;102118.28;;;15.74
76007;BMP280;64699;0.000;0.000;2023-02-28T07:01:28;102115.09;;;15.75
76007;BMP280;64699;0.000;0.000;2023-02-28T07:03:54;102109.78;;;15.72
76007;BMP280;64699;0.000;0.000;2023-02-28T07:06:23;102103.06;;;15.73
76007;BMP280;64699;0.000;0.000;2023-02-28T07:08:49;102104.13;;;15.75
76007;BMP280;64699;0.000;0.000;2023-02-28T07:11:15;102100.88;;;15.77
76007;BMP280;64699;0.000;0.000;2023-02-28T07:13:43;102097.69;;;15.78
76007;BMP280;64699;0.000;0.000;2023-02-28T07:16:09;102105.47;;;15.80
76007;BMP280;64699;0.000;0.000;2023-02-28T07:18:35;102105.47;;;15.80
76007;BMP280;64699;0.000;0.000;2023-02-28T07:21:02;102104.25;;;15.81
76007;BMP280;64699;0.000;0.000;2023-02-28T07:23:28;102107.75;;;15.81
76007;BMP280;64699;0.000;0.000;2023-02-28T07:25:54;102107.75;;;15.81
76007;BMP280;64699;0.000;0.000;2023-02-28T07:28:19;102109.97;;;15.83
76007;BMP280;64699;0.000;0.000;2023-02-28T07:30:45;102114.81;;;15.88
76007;BMP280;64699;0.000;0.000;2023-02-28T07:33:10;102116.97;;;15.84
76007;BMP280;64699;0.000;0.000;2023-02-28T07:35:36;102106.34;;;15.86
76007;BMP280;64699;0.000;0.000;2023-02-28T07:38:01;102110.41;;;15.90
76007;BMP280;64699;0.000;0.000;2023-02-28T07:40:28;102107.34;;;15.88
76007;BMP280;64699;0.000;0.000;2023-02-28T07:42:53;102101.59;;;15.86
76007;BMP280;64699;0.000;0.000;2023-02-28T07:45:18;102100.19;;;15.91
76007;BMP280;64699;0.000;0.000;2023-02-28T07:47:44;102096.97;;;15.92
76007;BMP280;64699;0.000;0.000;2023-02-28T07:50:11;102102.28;;;15.96
76007;BMP280;64699;0.000;0.000;2023-02-28T07:52:37;102109.72;;;15.95
76007;BMP280;64699;0.000;0.000;2023-02-28T07:55:04;102115.34;;;16.01
76007;BMP280;64699;0.000;0.000;2023-02-28T07:57:30;102111.38;;;16.02
76007;BMP280;64699;0.000;0.000;2023-02-28T07:59:55;102109.88;;;16.01
76007;BMP280;64699;0.000;0.000;2023-02-28T08:02:24;102115.34;;;16.01
76007;BMP280;64699;0.000;0.000;2023-02-28T08:04:49;102115.34;;;16.01
76007;BMP280;64699;0.000;0.000;2023-02-28T08:07:15;102110.59;;;16.01
76007;BMP280;64699;0.000;0.000;2023-02-28T08:09:41;102109.88;;;16.01
76007;BMP280;64699;0.000;0.000;2023-02-28T08:12:06;102109.88;;;16.01
76007;BMP280;64699;0.000;0.000;2023-02-28T08:14:32;102116.09;;;16.01
76007;BMP280;64699;0.000;0.000;2023-02-28T08:16:58;102114.13;;;16.02
76007;BMP280;64699;0.000;0.000;2023-02-28T08:19:23;102108.81;;;15.98
76007;BMP280;64699;0.000;0.000;2023-02-28T08:21:49;102113.59;;;16.03
76007;BMP280;64699;0.000;0.000;2023-02-28T08:24:14;102107.22;;;16.06
76007;BMP280;64699;0.000;0.000;2023-02-28T08:26:39;102103.91;;;16.02
76007;BMP280;64699;0.000;0.000;2023-02-28T08:29:05;102107.38;;;16.03
76007;BMP280;64699;0.000;0.000;2023-02-28T08:31:31;102104.94;;;16.05
76007;BMP280;64699;0.000;0.000;2023-02-28T08:33:56;102106.91;;;16.04
76007;BMP280;64699;0.000;0.000;2023-02-28T08:36:24;102102.47;;;16.07
76007;BMP280;64699;0.000;0.000;2023-02-28T08:38:50;102107.97;;;16.07
76007;BMP280;64699;0.000;0.000;2023-02-28T08:41:15;102099.25;;;16.08
76007;BMP280;64699;0.000;0.000;2023-02-28T08:43:44;102104.75;;;16.08
76007;BMP280;64699;0.000;0.000;2023-02-28T08:46:12;102106.44;;;16.06
76007;BMP280;64699;0.000;0.000;2023-02-28T08:48:39;102110.41;;;16.05
76007;BMP280;64699;0.000;0.000;2023-02-28T08:51:06;102103.25;;;16.07
76007;BMP280;64699;0.000;0.000;2023-02-28T08:53:33;102107.78;;;16.10
76007;BMP280;64699;0.000;0.000;2023-02-28T08:56:02;102113.72;;;16.09
76007;BMP280;64699;0.000;0.000;2023-02-28T08:58:28;102104.94;;;16.05
76007;BMP280;64699;0.000;0.000;2023-02-28T09:00:54;102104.94;;;16.05
76007;BMP280;64699;0.000;0.000;2023-02-28T09:03:20;102112.81;;;16.12
76007;BMP280;64699;0.000;0.000;2023-02-28T09:05:56;102114.56;;;16.15
76007;BMP280;64699;0.000;0.000;2023-02-28T09:08:26;102113.44;;;16.07
76007;BMP280;64699;0.000;0.000;2023-02-28T09:10:52;102121.03;;;16.12
76007;BMP280;64699;0.000;0.000;2023-02-28T09:13:19;102111.84;;;16.15
76007;BMP280;64699;0.000;0.000;2023-02-28T09:15:45;102103.59;;;16.15
76007;BMP280;64699;0.000;0.000;2023-02-28T09:18:11;102111.53;;;16.13
76007;BMP280;64699;0.000;0.000;2023-02-28T09:20:37;102109.56;;;16.13
76007;BMP280;64699;0.000;0.000;2023-02-28T09:23:04;102111.28;;;16.11
76007;BMP280;64699;0.000;0.000;2023-02-28T09:25:29;102111.38;;;16.16
76007;BMP280;64699;0.000;0.000;2023-02-28T09:28:00;102110.06;;;16.12
76007;BMP280;64699;0.000;0.000;2023-02-28T09:30:26;102123.00;;;16.11
76007;BMP280;64699;0.000;0.000;2023-02-28T09:32:54;102122.06;;;16.14
76007;BMP280;64699;0.000;0.000;2023-02-28T09:35:23;102131.03;;;16.15
76007;BMP280;64699;0.000;0.000;2023-02-28T09:37:55;102117.63;;;16.17
76007;BMP280;64699;0.000;0.000;2023-02-28T09:40:22;102120.06;;;16.15
76007;BMP280;64699;0.000;0.000;2023-02-28T09:42:49;102123.00;;;16.11
76007;BMP280;64699;0.000;0.000;2023-02-28T09:45:23;102116.47;;;16.09
76007;BMP280;64699;0.000;0.000;2023-02-28T09:47:56;102125.34;;;16.04
76007;BMP280;64699;0.000;0.000;2023-02-28T09:50:37;102120.84;;;16.01
76007;BMP280;64699;0.000;0.000;2023-02-28T09:53:05;102116.66;;;16.05
76007;BMP280;64699;0.000;0.000;2023-02-28T09:58:00;102110.22;;;16.08
76007;BMP280;64699;0.000;0.000;2023-02-28T10:00:44;102108.91;;;16.04
76007;BMP280;64699;0.000;0.000;2023-02-28T10:03:22;102110.41;;;16.05
76007;BMP280;64699;0.000;0.000;2023-02-28T10:08:25;102113.16;;;16.05
76007;BMP280;64699;0.000;0.000;2023-02-28T10:10:57;102114.38;;;16.04
76007;BMP280;64699;0.000;0.000;2023-02-28T10:13:34;102119.41;;;16.05
76007;BMP280;64699;0.000;0.000;2023-02-28T10:18:48;102120.25;;;15.97
76007;BMP280;64699;0.000;0.000;2023-02-28T10:21:21;102116.25;;;15.98
76007;BMP280;64699;0.000;0.000;2023-02-28T10:23:48;102121.56;;;16.01
76007;BMP280;64699;0.000;0.000;2023-02-28T10:26:15;102109.88;;;16.01
76007;BMP280;64699;0.000;0.000;2023-02-28T10:28:41;102117.03;;;15.98
76007;BMP280;64699;0.000;0.000;2023-02-28T10:31:08;102113.44;;;16.07
76007;BMP280;64699;0.000;0.000;2023-02-28T10:33:34;102105.28;;;15.98
76007;BMP280;64699;0.000;0.000;2023-02-28T10:36:01;102118.09;;;16.01
76007;BMP280;64699;0.000;0.000;2023-02-28T10:38:37;102119.09;;;16.03
76007;BMP280;64699;0.000;0.000;2023-02-28T10:41:16;102123.84;;;16.03
76007;BMP280;64699;0.000;0.000;2023-02-28T10:43:42;102112.88;;;16.03
76007;BMP280;64699;0.000;0.000;2023-02-28T10:48:39;102109.28;;;15.97
76007;BMP280;64699;0.000;0.000;2023-02-28T10:51:07;102107.88;;;16.01
76007;BMP280;64699;0.000;0.000;2023-02-28T10:53:34;102108.03;;;15.98
76007;BMP280;64699;0.000;0.000;2023-02-28T11:03:56;102094.94;;;16.02
76007;BMP280;64699;0.000;0.000;2023-02-28T11:06:26;102089.59;;;15.98
76007;BMP280;64699;0.000;0.000;2023-02-28T11:09:16;102090.34;;;15.99
76007;BMP280;64699;0.000;0.000;2023-02-28T11:11:45;102092.00;;;16.05
76007;BMP280;64699;0.000;0.000;2023-02-28T11:14:25;102083.19;;;16.16
76007;BMP280;64699;0.000;0.000;2023-02-28T11:16:51;102081.09;;;16.25
76007;BMP280;64699;0.000;0.000;2023-02-28T11:19:25;102071.03;;;16.17
76007;BMP280;64699;0.000;0.000;2023-02-28T11:21:56;102079.25;;;16.17
76007;BMP280;64699;0.000;0.000;2023-02-28T11:24:26;102068.81;;;16.21
76007;BMP280;64699;0.000;0.000;2023-02-28T11:26:53;102065.59;;;16.37
76007;BMP280;64699;0.000;0.000;2023-02-28T11:29:23;102063.88;;;16.39
76007;BMP280;64699;0.000;0.000;2023-02-28T11:34:27;102058.88;;;16.38
76007;BMP280;64699;0.000;0.000;2023-02-28T11:36:54;102052.84;;;16.34
76007;BMP280;64699;0.000;0.000;2023-02-28T11:39:21;102042.81;;;16.16
76007;BMP280;64699;0.000;0.000;2023-02-28T11:44:54;102042.16;;;16.07
76007;BMP280;64699;0.000;0.000;2023-02-28T11:52:45;102025.50;;;16.25
76007;BMP280;64699;0.000;0.000;2023-02-28T11:55:16;102030.13;;;16.48
76007;BMP280;64699;0.000;0.000;2023-02-28T12:00:37;102020.28;;;16.75
76007;BMP280;64699;0.000;0.000;2023-02-28T12:05:58;102005.81;;;16.95
76007;BMP280;64699;0.000;0.000;2023-02-28T12:08:30;102007.56;;;17.12
76007;BMP280;64699;0.000;0.000;2023-02-28T12:19:06;102005.09;;;16.11
76007;BMP280;64699;0.000;0.000;2023-02-28T12:26:45;101994.22;;;16.65
76007;BMP280;64699;0.000;0.000;2023-02-28T12:31:41;101993.66;;;16.61
76007;BMP280;64699;0.000;0.000;2023-02-28T12:34:11;101994.59;;;16.58
76007;BMP280;64699;0.000;0.000;2023-02-28T12:36:38;101984.59;;;16.55
76007;BMP280;64699;0.000;0.000;2023-02-28T12:39:16;101986.09;;;16.56
76007;BMP280;64699;0.000;0.000;2023-02-28T12:41:45;101986.69;;;17.00
76007;BMP280;64699;0.000;0.000;2023-02-28T12:44:14;101981.66;;;16.99
76007;BMP280;64699;0.000;0.000;2023-02-28T12:46:41;101977.41;;;16.44
76007;BMP280;64699;0.000;0.000;2023-02-28T12:49:21;101969.56;;;16.17
76007;BMP280;64699;0.000;0.000;2023-02-28T12:51:50;101976.47;;;16.12
76007;BMP280;64699;0.000;0.000;2023-02-28T12:54:24;101969.81;;;16.04
76007;BMP280;64699;0.000;0.000;2023-02-28T12:56:58;101973.03;;;16.03
76007;BMP280;64699;0.000;0.000;2023-02-28T13:07:10;101968.22;;;15.98
76007;BMP280;64699;0.000;0.000;2023-02-28T13:09:38;101965.47;;;15.98
76007;BMP280;64699;0.000;0.000;2023-02-28T13:12:12;101960.00;;;15.98
76007;BMP280;64699;0.000;0.000;2023-02-28T13:14:38;101955.00;;;15.96
76007;BMP280;64699;0.000;0.000;2023-02-28T13:19:32;101950.28;;;15.97
76007;BMP280;64699;0.000;0.000;2023-02-28T13:21:59;101946.28;;;15.98
76007;BMP280;64699;0.000;0.000;2023-02-28T13:29:34;101945.69;;;16.08
76007;BMP280;64699;0.000;0.000;2023-02-28T13:34:34;101941.81;;;16.15
76007;BMP280;64699;0.000;0.000;2023-02-28T13:39:46;101933.91;;;16.02
76007;BMP280;64699;0.000;0.000;2023-02-28T13:51:00;101931.09;;;15.97
76007;BMP280;64699;0.000;0.000;2023-02-28T14:01:16;101911.31;;;15.93
76007;BMP280;64699;0.000;0.000;2023-02-28T14:06:22;101905.81;;;15.93
76007;BMP280;64699;0.000;0.000;2023-02-28T14:08:57;101901.59;;;15.92
76007;BMP280;64699;0.000;0.000;2023-02-28T14:11:25;101892.13;;;15.93
76007;BMP280;64699;0.000;0.000;2023-02-28T14:13:51;101886.38;;;15.91
76007;BMP280;64699;0.000;0.000;2023-02-28T14:16:19;101889.88;;;15.91
76007;BMP280;64699;0.000;0.000;2023-02-28T14:19:02;101888.84;;;15.89
76007;BMP280;64699;0.000;0.000;2023-02-28T14:21:35;101889.81;;;15.86
76007;BMP280;64699;0.000;0.000;2023-02-28T14:26:55;101888.50;;;15.81
76007;BMP280;64699;0.000;0.000;2023-02-28T14:29:30;101885.06;;;15.72
76007;BMP280;64699;0.000;0.000;2023-02-28T14:32:13;101882.81;;;15.56
76007;BMP280;64699;0.000;0.000;2023-02-28T14:37:10;101887.66;;;15.23
76007;BMP280;64699;0.000;0.000;2023-02-28T14:39:40;101880.63;;;15.17
76007;BMP280;64699;0.000;0.000;2023-02-28T14:42:24;101885.25;;;15.25
76007;BMP280;64699;0.000;0.000;2023-02-28T14:44:53;101883.38;;;15.46
76007;BMP280;64699;0.000;0.000;2023-02-28T14:47:19;101883.19;;;15.63
76007;BMP280;64699;0.000;0.000;2023-02-28T14:49:45;101875.06;;;15.69
76007;BMP280;64699;0.000;0.000;2023-02-28T14:54:37;101869.19;;;15.90
76007;BMP280;64699;0.000;0.000;2023-02-28T14:57:03;101870.88;;;15.88
76007;BMP280;64699;0.000;0.000;2023-02-28T14:59:30;101876.25;;;15.97
76007;BMP280;64699;0.000;0.000;2023-02-28T15:04:40;101860.28;;;15.95
76007;BMP280;64699;0.000;0.000;2023-02-28T15:07:10;101861.59;;;16.00
76007;BMP280;64699;0.000;0.000;2023-02-28T15:09:36;101862.06;;;15.98
76007;BMP280;64699;0.000;0.000;2023-02-28T15:12:02;101865.56;;;15.99
76007;BMP280;64699;0.000;0.000;2023-02-28T15:14:27;101860.28;;;15.95
76007;BMP280;64699;0.000;0.000;2023-02-28T15:16:57;101858.97;;;15.91
76007;BMP280;64699;0.000;0.000;2023-02-28T15:19:34;101870.94;;;15.93
76007;BMP280;64699;0.000;0.000;2023-02-28T15:22:17;101862.72;;;15.93
76007;BMP280;64699;0.000;0.000;2023-02-28T15:24:48;101863.97;;;15.92
76007;BMP280;64699;0.000;0.000;2023-02-28T15:29:46;101863.50;;;15.94
76007;BMP280;64699;0.000;0.000;2023-02-28T15:32:28;101873.25;;;15.95
76007;BMP280;64699;0.000;0.000;2023-02-28T15:34:58;101869.72;;;15.94
76007;BMP280;64699;0.000;0.000;2023-02-28T15:39:49;101869.91;;;16.05
76007;BMP280;64699;0.000;0.000;2023-02-28T15:42:19;101870.06;;;16.16
76007;BMP280;64699;0.000;0.000;2023-02-28T15:44:45;101870.38;;;16.24
76007;BMP280;64699;0.000;0.000;2023-02-28T15:49:40;101872.22;;;16.27
76007;BMP280;64699;0.000;0.000;2023-02-28T15:52:10;101870.97;;;16.28
76007;BMP280;64699;0.000;0.000;2023-02-28T15:54:37;101877.94;;;16.29
76007;BMP280;64699;0.000;0.000;2023-02-28T15:57:06;101870.97;;;16.28
76007;BMP280;64699;0.000;0.000;2023-02-28T15:59:33;101872.47;;;16.29
76007;BMP280;64699;0.000;0.000;2023-02-28T16:04:35;101871.75;;;16.28
76007;BMP280;64699;0.000;0.000;2023-02-28T16:07:02;101874.94;;;16.27
76007;BMP280;64699;0.000;0.000;2023-02-28T16:09:28;101875.88;;;16.24
76007;BMP280;64699;0.000;0.000;2023-02-28T16:11:55;101873.66;;;16.22
76007;BMP280;64699;0.000;0.000;2023-02-28T16:14:31;101883.84;;;16.22
76007;BMP280;64699;0.000;0.000;2023-02-28T16:17:19;101884.34;;;16.20
76007;BMP280;64699;0.000;0.000;2023-02-28T16:19:45;101886.31;;;16.20
76007;BMP280;64699;0.000;0.000;2023-02-28T16:22:11;101887.53;;;16.19
76007;BMP280;64699;0.000;0.000;2023-02-28T16:24:36;101882.25;;;16.15
76007;BMP280;64699;0.000;0.000;2023-02-28T16:27:03;101888.19;;;16.14
76007;BMP280;64699;0.000;0.000;2023-02-28T16:29:30;101891.47;;;16.12
76007;BMP280;64699;0.000;0.000;2023-02-28T16:31:57;101897.41;;;16.11
76007;BMP280;64699;0.000;0.000;2023-02-28T16:34:23;101890.69;;;16.12
76007;BMP280;64699;0.000;0.000;2023-02-28T16:36:48;101883.13;;;16.07
76007;BMP280;64699;0.000;0.000;2023-02-28T16:39:15;101884.81;;;16.04
76007;BMP280;64699;0.000;0.000;2023-02-28T16:41:44;101888.06;;;16.03